• Join FlightAware (Why Join?)
  • Login
  • US Flag 
09:21PM EDT


 

Airport Tracker/Info


-or-


 

Live Flight TrackerFlight Track Log ✈ EJA583 ✈ 05-Nov-2013 ✈ KTPA - KMEM

Flight Track Log - Related Links

Times and Time Zones

All times are in EST time to prevent confusion due to time zone crossing. See the EJA583 flight status page for this flight to view local times or setup timezone preferences in your user account.

Time Position Orientation Groundspeed Altitude Reporting Facility
EST Latitude Longitude Course Direction KTS MPH feet Rate Location/Type
08:12AM 27.9833 -82.5333 355° North 174 200 700  Level Tampa TRACON
08:13AM 28.0972 -82.5444 355° North 243 280 5,100 2,640 Climbing Jacksonville Center
08:14AM 28.1706 -82.5817 336° Northwest 263 303 8,500 3,120 Climbing Jacksonville Center
08:15AM 28.2456 -82.6264 332° Northwest 281 323 11,400 2,460 Climbing Jacksonville Center
08:16AM 28.3250 -82.6686 335° Northwest 297 342 13,500 2,100 Climbing Jacksonville Center
08:17AM 28.4064 -82.7156 333° Northwest 314 361 15,700 1,920 Climbing Jacksonville Center
08:18AM 28.4881 -82.7628 333° Northwest 325 374 17,400 1,440 Climbing Jacksonville Center
08:19AM 28.5778 -82.8169 332° Northwest 339 390 18,600 1,560 Climbing Jacksonville Center
08:20AM 28.6675 -82.8736 331° Northwest 357 411 20,600 1,800 Climbing Jacksonville Center
08:21AM 28.7508 -82.9353 327° Northwest 357 411 22,200 1,500 Climbing Jacksonville Center
08:22AM 28.8406 -82.9969 329° Northwest 367 422 23,600 1,500 Climbing Jacksonville Center
08:23AM 28.9303 -83.0586 329° Northwest 374 430 25,300 1,440 Climbing Jacksonville Center
08:24AM 29.0219 -83.1228 329° Northwest 379 436 26,500 1,080 Climbing Jacksonville Center
08:25AM 29.1139 -83.1850 329° Northwest 379 436 27,500 900 Climbing Jacksonville Center
08:26AM 29.2033 -83.2567 325° Northwest 384 442 28,300 1,020 Climbing Jacksonville Center
08:27AM 29.2969 -83.3283 326° Northwest 395 455 29,600 1,800 Climbing Jacksonville Center
08:28AM 29.3867 -83.3956 327° Northwest 395 455 31,900 1,620 Climbing Jacksonville Center
08:29AM 29.4803 -83.4700 325° Northwest 382 440 32,900 1,200 Climbing Jacksonville Center
08:30AM 29.5633 -83.5372 325° Northwest 377 434 34,300 1,260 Climbing Jacksonville Center
08:31AM 29.6486 -83.6022 326° Northwest 377 434 35,500 1,140 Climbing Jacksonville Center
08:32AM 29.7339 -83.6675 326° Northwest 371 427 36,600 1,200 Climbing Jacksonville Center
08:33AM 29.8211 -83.7353 326° Northwest 376 433 37,900 660 Climbing Jacksonville Center
08:34AM 29.9103 -83.8056 326° Northwest 381 438 38,000  Climbing Jacksonville Center
08:35AM 30.0081 -83.8808 326° Northwest 393 452 38,000  Level Jacksonville Center
08:36AM 30.1033 -83.9561 326° Northwest 405 466 38,000  Level Jacksonville Center
08:37AM 30.1967 -84.0317 325° Northwest 415 478 38,000  Level Jacksonville Center
08:38AM 30.2919 -84.1050 326° Northwest 415 478 38,000  Level Jacksonville Center
08:39AM 30.3853 -84.1786 326° Northwest 415 478 38,000  Level Jacksonville Center
08:40AM 30.4661 -84.2397 327° Northwest 408 470 38,000  Level Jacksonville Center
08:41AM 30.5675 -84.3233 325° Northwest 402 463 38,000  Level Jacksonville Center
08:42AM 30.6461 -84.3872 325° Northwest 397 457 38,000  Level Jacksonville Center
08:43AM 30.7369 -84.4611 325° Northwest 397 457 38,000  Level Jacksonville Center
08:44AM 30.8281 -84.5328 326° Northwest 397 457 38,000  Level Jacksonville Center
08:47AM 31.0622 -84.7200 326° Northwest 408 470 38,000  Level Atlanta Center
08:48AM 31.1536 -84.7958 325° Northwest 403 464 38,000  Level Atlanta Center
08:49AM 31.2472 -84.8719 325° Northwest 403 464 38,000  Level Atlanta Center
08:50AM 31.3383 -84.9433 326° Northwest 403 464 38,000  Level Atlanta Center
08:51AM 31.4275 -85.0194 324° Northwest 403 464 38,000  Level Atlanta Center
08:52AM 31.5125 -85.0886 325° Northwest 403 464 38,000  Level Atlanta Center
08:53AM 31.6100 -85.1653 326° Northwest 403 464 38,000  Level Atlanta Center
08:54AM 31.6992 -85.2397 325° Northwest 403 464 38,000  Level Atlanta Center
08:55AM 31.7903 -85.3142 325° Northwest 403 464 38,000  Level Atlanta Center
08:56AM 31.8792 -85.3864 325° Northwest 398 458 38,000  Level Atlanta Center
08:57AM 31.9700 -85.4614 325° Northwest 398 458 38,000  Level Atlanta Center
08:58AM 32.0592 -85.5314 326° Northwest 398 458 38,000  Level Atlanta Center
08:59AM 32.1478 -85.6064 324° Northwest 398 458 38,000  Level Atlanta Center
09:00AM 32.2389 -85.6792 326° Northwest 393 452 38,000  Level Atlanta Center
09:01AM 32.3275 -85.7544 324° Northwest 393 452 38,000  Level Atlanta Center
09:02AM 32.4058 -85.8250 323° Northwest 398 458 38,000  Level Atlanta Center
09:03AM 32.4922 -85.9031 323° Northwest 398 458 38,000  Level Atlanta Center
09:04AM 32.5894 -85.9717 329° Northwest 398 458 38,000  Level Atlanta Center
09:05AM 32.6778 -86.0475 324° Northwest 398 458 38,000  Level Atlanta Center
09:06AM 32.7664 -86.1236 324° Northwest 398 458 38,000  Level Atlanta Center
09:07AM 32.8569 -86.2025 324° Northwest 404 465 38,000  Level Atlanta Center
09:08AM 32.9475 -86.2767 326° Northwest 404 465 38,000  Level Atlanta Center
09:09AM 33.0378 -86.3533 325° Northwest 398 458 38,000  Level Atlanta Center
09:10AM 33.1281 -86.4300 325° Northwest 403 464 38,000  Level Atlanta Center
09:11AM 33.2186 -86.5069 325° Northwest 398 458 38,000  Level Atlanta Center
09:12AM 33.3150 -86.5917 324° Northwest 398 458 38,000  Level Atlanta Center
09:13AM 33.4236 -86.6844 325° Northwest 398 458 38,000  Level Atlanta Center
09:14AM 33.5117 -86.7644 323° Northwest 398 458 38,000  Level Atlanta Center
09:15AM 33.6036 -86.8422 325° Northwest 404 465 38,000  Level Atlanta Center
09:16AM 33.6831 -86.9297 318° Northwest 404 465 38,000  Level Atlanta Center
09:17AM 33.7367 -87.0414 300° West 387 445 38,000  Level Atlanta Center
09:18AM 33.7883 -87.1506 300° West 387 445 38,000  Level Atlanta Center
09:20AM 33.9078 -87.3989 300° West 394 453 38,000  Level Memphis Center
09:21AM 33.9628 -87.5122 300° West 386 444 38,000  Level Memphis Center
09:22AM 34.0108 -87.6108 300° West 386 444 38,000 -360 Level Memphis Center
09:23AM 34.0611 -87.7194 299° West 380 437 37,300 -1,140 Descending Memphis Center
09:24AM 34.1114 -87.8283 299° West 374 430 35,800 -1,500 Descending Memphis Center
09:25AM 34.1594 -87.9350 299° West 369 425 34,300 -1,500 Descending Memphis Center
09:26AM 34.2075 -88.0467 298° West 369 425 32,800 -1,500 Descending Memphis Center
09:27AM 34.2553 -88.1558 298° West 369 425 31,400 -1,500 Descending Memphis Center
09:28AM 34.3056 -88.2828 296° West 382 440 29,800 -1,560 Descending Memphis Center
09:29AM 34.3533 -88.3972 297° West 376 433 28,300 -1,800 Descending Memphis Center
09:30AM 34.4031 -88.5119 298° West 381 438 26,300 -2,280 Descending Memphis Center
09:31AM 34.4547 -88.6292 298° West 381 438 23,800 -2,580 Descending Memphis Center
09:32AM 34.5022 -88.7467 296° West 386 444 21,200 -2,520 Descending Memphis Center
09:33AM 34.5497 -88.8567 298° West 378 435 18,800 -2,280 Descending Memphis Center
09:34AM 34.5947 -88.9669 296° West 366 421 16,700 -2,400 Descending Memphis Center
09:35AM 34.6397 -89.0722 297° West 359 413 14,000 -2,580 Descending Memphis Center
09:36AM 34.6825 -89.1753 297° West 354 407 11,600 -1,860 Descending Memphis Center
09:37AM 34.7189 -89.2706 295° West 342 394 10,300 -720 Descending Memphis Center
09:38AM 34.7383 -89.3539 286° West 302 348 10,200 -180 Descending Memphis Center
09:39AM 34.7578 -89.4497 284° West 291 335 10,000 -120 Descending Memphis Center
09:40AM 34.7917 -89.5378 295° West 291 335 10,000  Level Memphis Center
09:41AM 34.8361 -89.6258 302° West 291 335 10,000  Level Memphis Center
09:42AM 34.8806 -89.7089 303° West 301 346 10,000  Level Memphis Center
09:43AM 34.9289 -89.8100 300° West 306 352 10,000 -420 Level Memphis Center
09:44AM 34.9772 -89.8756 312° West 299 344 9,200 -1,200 Descending Memphis Center
09:45AM 35.0522 -89.8828 355° North 265 305 7,700 -1,500 Descending Memphis Center
09:46AM 35.1233 -89.8822 360° North 257 296 6,200 -1,380 Descending Memphis Center
09:47AM 35.1900 -89.8844 358° North 245 282 5,000 -600 Descending Memphis Center
09:48AM 35.2567 -89.8867 358° North 239 275 5,000 -720 Level Memphis Center
09:49AM 35.3297 -89.8889 359° North 239 275 3,600 -1,020 Descending Memphis Center
09:50AM 35.4008 -89.8908 359° North 239 275 3,000 -180 Descending Memphis Center
09:53AM 35.4000 -89.9833 269° West 166 191 3,100  Climbing KMEM
09:53AM 35.3667 -89.9833 180° South 170 196 3,100  Level KMEM
09:55AM 35.3167 -89.9833 180° South 157 181 3,100  Level KMEM
09:56AM 35.2667 -89.9833 180° South 152 175 3,100  Level KMEM
09:57AM 35.2333 -89.9667 158° South 144 166 3,100  Level KMEM
09:58AM 35.2000 -89.9667 180° South 150 173 3,100 -420 Level KMEM
09:59AM 35.1500 -89.9667 180° South 157 181 2,300 -780 Descending KMEM
10:00AM 35.1000 -89.9667 180° South 144 166 1,500 -780 Descending KMEM
10:00AM 35.0833 -89.9667 180° South 139 160 900 -780 Descending KMEM